الصفحة الرئيسية
METAR-TAF:

METAR-TAF

مطار :

ساسكاتون, ساسكاتشوان, كندا

دائرة عرض: 52-10N, خط طول: 106-41W, ارتفاع: 501 متر

مراقبة الطقس الحالي

تاريخ ووقت الإصدار 20 دقيقة قبل الساعة 11:00UTC
ريح 11 عقدة من الجنوب/الجنوب الشرقي
درجة الحرارة -19°درجة مئوية
الرطوبة 70%
ضغط 1027 hPa
الرؤية: 24.1 كم
سماء صافية

METAR: CYXE 161100Z 16011KT 15SM SKC M19/M23 A3032 RMK SLP322

زمن: 05:20 (11:20 UTC)

توقعات

تاريخ ووقت الإصدار 5ساعات و 42 دقيقة قبل الساعة 05:38UTC
التوقعات صالحة من16 الساعة 06 UTC إلى 17 الساعة 06 UTC
ريح 12 عقدة من الجنوب
الرؤية: 10 كم
سماء صافية
أصبح
من 17 الساعة 01 UTC إلى 17 الساعة 03 UTC
ريح 8 عقدة من الجنوب

TAF: CYXE 160538Z 1606/1706 17012KT P6SM SKC BECMG 1701/1703 19008KT RMK NXT FCST BY 161200Z

أرصاد الطقس والتوقعات من أكثر من 4000 مطار (تقارير الطقس للمطار METAR والتنبؤ بالطقس بالمطارTAF).

المحطات المتاحة هي النقط الصفراء والحمراء على الخريطة.

حرك المؤشر فوق النقطة لمعرفة اسم المحطة.

ثم انقر لمعرفة أرصاد وتوقعات الطقس.

لتغيير الخارطة: اضغط على الأزرار الخضراء مع رمز الصليب الأسود للتكبير. على الزر الأخضر مع شرطة للتصغير، أو على الأسهم الخضراء للخرائط المجاورة.


METAR-TAF: